Kezdőlap
METAR-TAF:

METAR-TAF

Repülőterek :

Kingston, Jamaica

földrajzi szélesség: 17-56N, földrajzi hosszúság: 076-47W, magasság: 3 m

Jelenlegi meteorológiai megfigyelések

A jelentés 39 perccel ezelõtt készült, 07:00 UTC
Nyugati szél 3 kt
Hőmérséklet 28°C
Páratartalom 84%
Légköri nyomás 1013 hPa
Látótávolság 10 km, vagy több
Kevés felhő 2200 lábon

METAR: MKJP 230700Z 28003KT 9999 FEW022 28/25 Q1013

Idő: 02:39 (07:39 UTC)

Előrejelzés

A jelentés 2 órával és 24 perccel ezelõtt készült, 05:15 UTC
Az előrejelzés 23-én 06 óra UTC és 24-én 06 óra UTC között érvényes
Északi szél 5 kt
Látótávolság 10 km, vagy több
Kevés felhő 2200 lábon
23-én 12 óra UTC és 23-én 14 óra UTC között fokozatosan kialakuló
Délkeleti szél 18 kt
Kevés felhő 2200 lábon, Cumulonimbus.
24-én 01 óra UTC és 24-én 03 óra UTC között fokozatosan kialakuló
Északi szél 5 kt

TAF: MKJP 230515Z 2306/2406 36005KT 9999 FEW022 BECMG 2312/2314 14018KT FEW022CB BECMG 2401/2403 36005KT

Meteorológiai megfigyelések és előrejelzések több, mint 4000 repülőtéren (METAR és TAF jelentéseket).

A térképen piros és sárga pontok jelzik az elérhető meteorológiai állomásokat.

Mozgassa az egeret a pont fölött, hogy megjelenjen az állomás neve.

Azután kattintson az időjárási megfigyelések és előrejelzések megtekintéséhez.

A térkép megváltoztatása: kattintson a fekete keresztel jelölt zöld gombra ráközelítéshez, a vonallal jelölt zöld gombra távolításhoz, vagy a zöld nyilakra a szomszédos térképek eléréséhez.


METAR-TAF: